Time;durP1;ratioP1;P1;durP2;ratioP2;P2;SDS_P1;SDS_P2;PMS_P1;PMS_P2;Temp;Humidity;BMP_temperature;BMP_pressure;BME280_temperature;BME280_humidity;BME280_pressure;Samples;Min_cycle;Max_cycle;Signal;HPM_P1;HPM_P2
2023/04/10 00:00:24;;;;;;;37.42;26.35;;;;;;;;;;5023110;28;20041;-73
2023/04/10 00:02:50;;;;;;;44.25;27.92;;;;;;;;;;5013553;28;20041;-73
2023/04/10 00:05:16;;;;;;;40.58;27.98;;;;;;;;;;5016916;28;20593;-73
2023/04/10 00:07:42;;;;;;;43.65;29.30;;;;;;;;;;5014152;28;20568;-73
2023/04/10 00:10:09;;;;;;;40.20;27.90;;;;;;;;;;4998869;28;20045;-73
2023/04/10 00:12:36;;;;;;;44.70;29.33;;;;;;;;;;5021272;28;20048;-73
2023/04/10 00:15:03;;;;;;;44.13;30.23;;;;;;;;;;5015579;28;20049;-73
2023/04/10 00:17:29;;;;;;;43.42;29.63;;;;;;;;;;5003666;28;20135;-73
2023/04/10 00:19:55;;;;;;;47.90;31.55;;;;;;;;;;5030568;28;20079;-73
2023/04/10 00:22:21;;;;;;;42.83;30.15;;;;;;;;;;5016084;28;20085;-73
2023/04/10 00:24:47;;;;;;;45.92;29.73;;;;;;;;;;5002698;28;20176;-73
2023/04/10 00:27:13;;;;;;;47.15;32.67;;;;;;;;;;5017860;28;20706;-74
2023/04/10 00:29:39;;;;;;;48.33;32.72;;;;;;;;;;5015924;28;20040;-74
2023/04/10 00:32:05;;;;;;;51.83;35.15;;;;;;;;;;5030416;28;21794;-74
2023/04/10 00:34:31;;;;;;;50.20;33.55;;;;;;;;;;5014332;28;20191;-74
2023/04/10 00:36:58;;;;;;;49.35;34.30;;;;;;;;;;5016586;28;20041;-74
2023/04/10 00:39:24;;;;;;;51.70;34.47;;;;;;;;;;5029613;28;20131;-74
2023/04/10 00:41:50;;;;;;;49.05;34.33;;;;;;;;;;5017615;28;20052;-74
2023/04/10 00:44:16;;;;;;;54.97;35.80;;;;;;;;;;5028934;28;20912;-74
2023/04/10 00:46:42;;;;;;;50.85;35.10;;;;;;;;;;5035624;28;20040;-74
2023/04/10 00:49:09;;;;;;;48.25;33.70;;;;;;;;;;5018197;28;20072;-74
2023/04/10 00:51:36;;;;;;;50.40;33.90;;;;;;;;;;5037519;28;20045;-74
2023/04/10 00:54:03;;;;;;;48.53;33.55;;;;;;;;;;5023668;28;20126;-74
2023/04/10 00:56:33;;;;;;;52.45;35.92;;;;;;;;;;5019445;28;20523;-74
2023/04/10 00:58:59;;;;;;;53.45;35.65;;;;;;;;;;5036560;28;20488;-74
2023/04/10 01:01:25;;;;;;;57.33;37.55;;;;;;;;;;5018759;28;20040;-74
2023/04/10 01:03:51;;;;;;;52.22;34.78;;;;;;;;;;5007221;28;20109;-74
2023/04/10 01:06:35;;;;;;;48.90;34.20;;;;;;;;;;5015265;28;20047;-74
2023/04/10 01:09:05;;;;;;;53.85;35.88;;;;;;;;;;5034147;28;20098;-74
2023/04/10 01:11:37;;;;;;;52.33;36.17;;;;;;;;;;5024010;28;20028;-74
2023/04/10 01:14:23;;;;;;;52.83;35.53;;;;;;;;;;5017368;28;20047;-74
2023/04/10 01:16:52;;;;;;;51.85;35.55;;;;;;;;;;5014726;28;20066;-74
2023/04/10 01:19:34;;;;;;;52.55;34.67;;;;;;;;;;5035031;28;20036;-74
2023/04/10 01:22:02;;;;;;;50.45;34.55;;;;;;;;;;5017563;28;20055;-74
2023/04/10 01:24:47;;;;;;;53.15;35.30;;;;;;;;;;5020680;28;20471;-74
2023/04/10 01:27:31;;;;;;;55.92;36.13;;;;;;;;;;5019839;28;20049;-74
2023/04/10 01:29:59;;;;;;;54.00;36.83;;;;;;;;;;5038793;28;20048;-74
2023/04/10 01:32:26;;;;;;;54.22;36.05;;;;;;;;;;5036897;28;20158;-74
2023/04/10 01:34:54;;;;;;;58.15;35.42;;;;;;;;;;5035423;28;20051;-74
2023/04/10 01:37:21;;;;;;;53.60;35.65;;;;;;;;;;5019990;28;20044;-74
2023/04/10 01:39:50;;;;;;;56.10;36.35;;;;;;;;;;5037040;28;20041;-74
2023/04/10 01:42:17;;;;;;;51.80;35.88;;;;;;;;;;5021880;28;20853;-74
2023/04/10 01:44:46;;;;;;;51.83;35.80;;;;;;;;;;5020136;28;20060;-74
2023/04/10 01:47:13;;;;;;;57.22;37.58;;;;;;;;;;5021074;28;20051;-74
2023/04/10 01:49:43;;;;;;;52.60;36.22;;;;;;;;;;5020709;28;20056;-74
2023/04/10 01:52:10;;;;;;;50.13;34.88;;;;;;;;;;5022367;28;20209;-75
2023/04/10 01:54:36;;;;;;;52.50;35.88;;;;;;;;;;5020051;28;20110;-74
2023/04/10 01:57:03;;;;;;;53.22;36.67;;;;;;;;;;5038296;28;20047;-74
2023/04/10 01:59:30;;;;;;;53.20;35.78;;;;;;;;;;5017761;28;20059;-74
2023/04/10 02:02:00;;;;;;;52.53;36.55;;;;;;;;;;5021652;28;20048;-74
2023/04/10 02:04:26;;;;;;;55.85;35.65;;;;;;;;;;5038967;28;20041;-74
2023/04/10 02:07:06;;;;;;;54.15;36.42;;;;;;;;;;5019920;28;20071;-74
2023/04/10 02:09:51;;;;;;;51.80;35.55;;;;;;;;;;5020828;28;20057;-74
2023/04/10 02:12:23;;;;;;;53.55;36.38;;;;;;;;;;5038095;28;20044;-74
2023/04/10 02:14:50;;;;;;;52.22;35.28;;;;;;;;;;5018426;28;20052;-74
2023/04/10 02:17:18;;;;;;;53.95;35.65;;;;;;;;;;5021416;28;21385;-74
2023/04/10 02:19:47;;;;;;;54.03;35.78;;;;;;;;;;5039554;28;20046;-74
2023/04/10 02:22:13;;;;;;;55.40;36.05;;;;;;;;;;5037192;28;20053;-74
2023/04/10 02:24:39;;;;;;;52.47;36.03;;;;;;;;;;5025574;28;20044;-74
2023/04/10 02:27:05;;;;;;;51.92;34.95;;;;;;;;;;5036519;28;20491;-74
2023/04/10 02:29:31;;;;;;;57.33;34.88;;;;;;;;;;5035848;28;22231;-74
2023/04/10 02:31:57;;;;;;;51.60;34.80;;;;;;;;;;5036958;28;20692;-74
2023/04/10 02:34:23;;;;;;;50.72;35.10;;;;;;;;;;5034521;28;20403;-74
2023/04/10 02:36:49;;;;;;;54.60;35.38;;;;;;;;;;5025056;28;20498;-74
2023/04/10 02:39:15;;;;;;;51.22;35.38;;;;;;;;;;5036802;28;21183;-74
2023/04/10 02:41:41;;;;;;;54.58;35.83;;;;;;;;;;5016353;28;20044;-74
2023/04/10 02:44:07;;;;;;;52.47;34.20;;;;;;;;;;5035123;28;20067;-74
2023/04/10 02:46:34;;;;;;;52.30;33.88;;;;;;;;;;5038103;28;20084;-74
2023/04/10 02:49:00;;;;;;;50.78;34.70;;;;;;;;;;5036029;28;20039;-74
2023/04/10 02:51:26;;;;;;;50.75;33.95;;;;;;;;;;5017799;28;20044;-74
2023/04/10 02:53:52;;;;;;;50.42;32.97;;;;;;;;;;5018845;28;20052;-74
2023/04/10 02:56:19;;;;;;;49.22;34.80;;;;;;;;;;5035233;28;20497;-74
2023/04/10 02:58:46;;;;;;;49.92;33.80;;;;;;;;;;5035915;28;20041;-74
2023/04/10 03:01:13;;;;;;;48.35;33.45;;;;;;;;;;5018025;28;20554;-74
2023/04/10 03:03:39;;;;;;;46.50;31.75;;;;;;;;;;5017064;28;20098;-74
2023/04/10 03:06:05;;;;;;;48.40;33.13;;;;;;;;;;5021987;28;20087;-74
2023/04/10 03:08:31;;;;;;;46.28;32.00;;;;;;;;;;5017917;28;20575;-74
2023/04/10 03:10:57;;;;;;;48.08;31.48;;;;;;;;;;5034537;28;20044;-74
2023/04/10 03:13:23;;;;;;;48.75;32.83;;;;;;;;;;5017909;28;20048;-74
2023/04/10 03:15:49;;;;;;;48.35;32.42;;;;;;;;;;5035528;28;20048;-74
2023/04/10 03:18:15;;;;;;;48.33;32.17;;;;;;;;;;5019234;28;21692;-74
2023/04/10 03:20:41;;;;;;;45.80;30.52;;;;;;;;;;5022582;28;20048;-74
2023/04/10 03:23:07;;;;;;;44.88;31.10;;;;;;;;;;5017663;28;20080;-74
2023/04/10 03:25:34;;;;;;;51.53;31.02;;;;;;;;;;5036793;28;20049;-74
2023/04/10 03:28:00;;;;;;;48.00;32.22;;;;;;;;;;5016877;28;20036;-74
2023/04/10 03:30:26;;;;;;;43.05;29.80;;;;;;;;;;5035343;28;20396;-74
2023/04/10 03:32:52;;;;;;;46.97;30.02;;;;;;;;;;5016989;28;20049;-74
2023/04/10 03:35:18;;;;;;;44.03;30.10;;;;;;;;;;5035145;28;20044;-74
2023/04/10 03:37:44;;;;;;;40.85;29.20;;;;;;;;;;5035169;28;20392;-74
2023/04/10 03:40:11;;;;;;;46.45;31.40;;;;;;;;;;5034278;28;20849;-74
2023/04/10 03:42:37;;;;;;;42.95;29.55;;;;;;;;;;5017255;28;20397;-74
2023/04/10 03:45:05;;;;;;;42.00;29.58;;;;;;;;;;5010684;28;20478;-74
2023/04/10 03:47:31;;;;;;;45.95;31.35;;;;;;;;;;5016890;28;20434;-74
2023/04/10 03:49:58;;;;;;;46.60;30.85;;;;;;;;;;5035828;28;20040;-74
2023/04/10 03:52:24;;;;;;;43.70;30.58;;;;;;;;;;5036476;28;20049;-74
2023/04/10 03:54:51;;;;;;;43.50;30.83;;;;;;;;;;5033815;28;20056;-74
2023/04/10 03:57:19;;;;;;;48.17;32.58;;;;;;;;;;5034736;28;20526;-74
2023/04/10 03:59:45;;;;;;;45.00;30.85;;;;;;;;;;5033936;28;20053;-74
2023/04/10 04:02:11;;;;;;;45.15;29.98;;;;;;;;;;5017008;28;20051;-74
2023/04/10 04:04:37;;;;;;;48.72;31.25;;;;;;;;;;5031399;28;20119;-74
2023/04/10 04:07:04;;;;;;;49.67;32.58;;;;;;;;;;5016062;28;20045;-74
2023/04/10 04:09:30;;;;;;;48.35;32.22;;;;;;;;;;5015621;28;20502;-74
2023/04/10 04:11:56;;;;;;;48.20;32.92;;;;;;;;;;5014585;28;20459;-74
2023/04/10 04:14:23;;;;;;;45.38;31.27;;;;;;;;;;5018314;28;20087;-74
2023/04/10 04:16:49;;;;;;;50.90;33.67;;;;;;;;;;5014646;28;20044;-74
2023/04/10 04:19:15;;;;;;;48.13;32.50;;;;;;;;;;5035855;28;20502;-74
2023/04/10 04:21:41;;;;;;;47.65;32.65;;;;;;;;;;5022293;28;20040;-74
2023/04/10 04:24:07;;;;;;;51.35;32.72;;;;;;;;;;5035710;28;20041;-74
2023/04/10 04:26:33;;;;;;;49.20;32.83;;;;;;;;;;5034984;28;20090;-74
2023/04/10 04:28:59;;;;;;;52.17;31.88;;;;;;;;;;5032718;28;20451;-74
2023/04/10 04:31:31;;;;;;;50.28;33.25;;;;;;;;;;5034689;28;20420;-74
2023/04/10 04:33:57;;;;;;;49.55;33.72;;;;;;;;;;5036482;28;20472;-74
2023/04/10 04:36:23;;;;;;;47.22;31.27;;;;;;;;;;5018103;28;20041;-74
2023/04/10 04:38:49;;;;;;;47.72;31.25;;;;;;;;;;5034162;28;20400;-74
2023/04/10 04:41:15;;;;;;;49.35;33.78;;;;;;;;;;5017709;28;20451;-74
2023/04/10 04:43:41;;;;;;;51.15;33.65;;;;;;;;;;5034608;28;20071;-74
2023/04/10 04:46:07;;;;;;;51.08;33.60;;;;;;;;;;5034759;28;20140;-74
2023/04/10 04:48:35;;;;;;;47.78;32.22;;;;;;;;;;5035512;28;21824;-74
2023/04/10 04:51:01;;;;;;;48.63;32.38;;;;;;;;;;5023199;28;20043;-74
2023/04/10 04:53:27;;;;;;;49.03;32.78;;;;;;;;;;5017543;28;20579;-74
2023/04/10 04:55:53;;;;;;;48.13;33.05;;;;;;;;;;5015099;28;20438;-74
2023/04/10 04:58:20;;;;;;;48.75;31.77;;;;;;;;;;5033400;28;22338;-74
2023/04/10 05:00:46;;;;;;;48.45;33.40;;;;;;;;;;5015620;28;20548;-74
2023/04/10 05:03:12;;;;;;;49.00;33.45;;;;;;;;;;5015295;28;20051;-73
2023/04/10 05:05:38;;;;;;;50.35;34.13;;;;;;;;;;5032604;28;20060;-74
2023/04/10 05:08:04;;;;;;;46.33;31.90;;;;;;;;;;5015000;28;20063;-73
2023/04/10 05:10:31;;;;;;;49.95;33.20;;;;;;;;;;5034420;28;20149;-74
2023/04/10 05:12:57;;;;;;;47.85;32.35;;;;;;;;;;5015358;28;20047;-74
2023/04/10 05:15:23;;;;;;;50.03;32.78;;;;;;;;;;5013330;28;20037;-74
2023/04/10 05:17:51;;;;;;;48.63;32.92;;;;;;;;;;5014764;28;20049;-73
2023/04/10 05:20:17;;;;;;;47.72;33.28;;;;;;;;;;5016277;28;20162;-74
2023/04/10 05:22:43;;;;;;;47.60;30.77;;;;;;;;;;5016863;28;20092;-74
2023/04/10 05:25:09;;;;;;;48.17;33.83;;;;;;;;;;5015390;28;20057;-74
2023/04/10 05:27:36;;;;;;;50.90;32.42;;;;;;;;;;5016727;28;20048;-74
2023/04/10 05:30:02;;;;;;;46.92;32.13;;;;;;;;;;5016003;28;21818;-74
2023/04/10 05:32:29;;;;;;;50.08;32.67;;;;;;;;;;5034295;28;20041;-74
2023/04/10 05:34:55;;;;;;;48.88;33.38;;;;;;;;;;5033780;28;20757;-74
2023/04/10 05:37:21;;;;;;;46.35;31.55;;;;;;;;;;5015534;28;20129;-74
2023/04/10 05:39:50;;;;;;;48.47;33.30;;;;;;;;;;5029700;28;20055;-74
2023/04/10 05:42:16;;;;;;;49.17;32.95;;;;;;;;;;4998480;28;20176;-74
2023/04/10 05:44:42;;;;;;;48.72;32.00;;;;;;;;;;5016489;28;20053;-74
2023/04/10 05:47:08;;;;;;;48.97;32.53;;;;;;;;;;5002524;28;20050;-74
2023/04/10 05:49:34;;;;;;;45.33;32.10;;;;;;;;;;5014613;28;20136;-73
2023/04/10 05:52:00;;;;;;;48.42;33.05;;;;;;;;;;5016119;28;20622;-74
2023/04/10 05:54:29;;;;;;;46.97;33.08;;;;;;;;;;5032884;28;20068;-74
2023/04/10 05:56:55;;;;;;;49.35;33.22;;;;;;;;;;5034817;28;20044;-74
2023/04/10 05:59:22;;;;;;;49.40;32.63;;;;;;;;;;5032120;28;20040;-74
2023/04/10 06:01:48;;;;;;;51.60;34.47;;;;;;;;;;5017720;28;20090;-74
2023/04/10 06:04:14;;;;;;;47.20;32.90;;;;;;;;;;5032442;28;20048;-73
2023/04/10 06:06:40;;;;;;;49.92;33.80;;;;;;;;;;5032141;28;20092;-73
2023/04/10 06:09:06;;;;;;;46.40;33.08;;;;;;;;;;5021462;28;20059;-74
2023/04/10 06:11:32;;;;;;;44.45;31.48;;;;;;;;;;5001319;28;20043;-73
2023/04/10 06:13:58;;;;;;;48.20;31.63;;;;;;;;;;5036823;28;21789;-73
2023/04/10 06:16:25;;;;;;;49.03;31.85;;;;;;;;;;5015503;28;20083;-73
2023/04/10 06:18:52;;;;;;;50.33;33.83;;;;;;;;;;5018366;28;20048;-73
2023/04/10 06:21:19;;;;;;;46.50;34.05;;;;;;;;;;5017544;28;20165;-74
2023/04/10 06:23:45;;;;;;;47.70;32.45;;;;;;;;;;5037952;28;20032;-73
2023/04/10 06:26:11;;;;;;;48.65;32.72;;;;;;;;;;5015510;28;20059;-74
2023/04/10 06:28:38;;;;;;;46.50;33.83;;;;;;;;;;5019189;28;20049;-73
2023/04/10 06:31:06;;;;;;;46.65;31.98;;;;;;;;;;5021268;28;20081;-73
2023/04/10 06:33:34;;;;;;;48.25;32.80;;;;;;;;;;5036838;28;20802;-74
2023/04/10 06:36:01;;;;;;;49.10;33.22;;;;;;;;;;5035512;28;20880;-73
2023/04/10 06:38:27;;;;;;;46.83;32.55;;;;;;;;;;5035690;28;20048;-73
2023/04/10 06:40:53;;;;;;;50.20;32.35;;;;;;;;;;5036933;28;20048;-74
2023/04/10 06:43:19;;;;;;;47.90;32.90;;;;;;;;;;5033776;28;20048;-75
2023/04/10 06:45:45;;;;;;;48.42;31.85;;;;;;;;;;5006927;28;20056;-74
2023/04/10 06:48:11;;;;;;;45.25;32.03;;;;;;;;;;5012111;28;20730;-74
2023/04/10 06:50:38;;;;;;;47.17;35.28;;;;;;;;;;5016633;28;20048;-74
2023/04/10 06:53:04;;;;;;;49.58;32.97;;;;;;;;;;5036125;28;20633;-74
2023/04/10 06:55:30;;;;;;;50.78;33.92;;;;;;;;;;5014011;28;21755;-75
2023/04/10 06:57:56;;;;;;;47.50;33.40;;;;;;;;;;5033137;28;20404;-75
2023/04/10 07:00:22;;;;;;;48.22;32.60;;;;;;;;;;5012933;28;20045;-75
2023/04/10 07:02:49;;;;;;;50.50;32.05;;;;;;;;;;5033127;28;20036;-75
2023/04/10 07:05:15;;;;;;;46.60;32.97;;;;;;;;;;5016570;28;20048;-75
2023/04/10 07:07:41;;;;;;;46.20;32.17;;;;;;;;;;5000557;28;20442;-75
2023/04/10 07:10:08;;;;;;;43.65;31.80;;;;;;;;;;5016894;28;20079;-75
2023/04/10 07:12:34;;;;;;;47.00;33.20;;;;;;;;;;5015739;28;20040;-75
2023/04/10 07:15:00;;;;;;;43.88;32.45;;;;;;;;;;5016027;28;20057;-75
2023/04/10 07:17:26;;;;;;;46.33;32.28;;;;;;;;;;5034592;28;20055;-74
2023/04/10 07:19:52;;;;;;;45.83;31.70;;;;;;;;;;5012081;28;20101;-74
2023/04/10 07:22:18;;;;;;;48.90;32.78;;;;;;;;;;5024150;28;20140;-73
2023/04/10 07:24:44;;;;;;;47.80;32.08;;;;;;;;;;5017580;28;20454;-73
2023/04/10 07:27:11;;;;;;;44.97;30.15;;;;;;;;;;5036583;28;20082;-74
2023/04/10 07:29:37;;;;;;;41.70;29.30;;;;;;;;;;5033855;28;20059;-74
2023/04/10 07:32:04;;;;;;;47.65;31.92;;;;;;;;;;5018104;28;20045;-74
2023/04/10 07:34:30;;;;;;;46.88;31.50;;;;;;;;;;5016584;28;20040;-74
2023/04/10 07:36:56;;;;;;;46.78;29.60;;;;;;;;;;5034140;28;20048;-74
2023/04/10 07:39:22;;;;;;;43.08;30.77;;;;;;;;;;5034467;28;20435;-74
2023/04/10 07:41:48;;;;;;;46.45;30.73;;;;;;;;;;5024618;28;20047;-74
2023/04/10 07:44:16;;;;;;;41.78;29.95;;;;;;;;;;5012248;28;20060;-74
2023/04/10 07:46:42;;;;;;;46.28;31.15;;;;;;;;;;5011727;28;20124;-75
2023/04/10 07:49:08;;;;;;;43.45;29.20;;;;;;;;;;5003371;28;20032;-74
2023/04/10 07:51:34;;;;;;;36.97;27.23;;;;;;;;;;5028904;28;20079;-75
2023/04/10 07:54:02;;;;;;;41.53;30.60;;;;;;;;;;5033539;28;20132;-74
2023/04/10 07:56:30;;;;;;;40.47;28.90;;;;;;;;;;5018664;28;20080;-76
2023/04/10 07:58:58;;;;;;;40.75;29.42;;;;;;;;;;5033335;28;20045;-74
2023/04/10 08:01:25;;;;;;;40.45;28.10;;;;;;;;;;5014928;28;20041;-74
2023/04/10 08:03:51;;;;;;;36.70;27.83;;;;;;;;;;5031045;28;20036;-76
2023/04/10 08:06:17;;;;;;;39.85;27.67;;;;;;;;;;5029185;28;20052;-75
2023/04/10 08:08:43;;;;;;;40.63;27.73;;;;;;;;;;5031604;28;20056;-75
2023/04/10 08:11:23;;;;;;;38.80;27.92;;;;;;;;;;5029935;28;20036;-75
2023/04/10 08:13:50;;;;;;;36.88;25.67;;;;;;;;;;5016168;28;20507;-75
2023/04/10 08:16:16;;;;;;;35.15;26.35;;;;;;;;;;5015178;28;20052;-77
2023/04/10 08:18:42;;;;;;;37.05;27.38;;;;;;;;;;5012163;28;20052;-75
2023/04/10 08:21:08;;;;;;;39.35;26.63;;;;;;;;;;4996640;28;20473;-73
2023/04/10 08:23:34;;;;;;;36.65;25.55;;;;;;;;;;5013292;28;20049;-73
2023/04/10 08:26:00;;;;;;;39.30;26.92;;;;;;;;;;5017571;28;20045;-75
2023/04/10 08:28:26;;;;;;;37.03;26.30;;;;;;;;;;5033620;28;21887;-75
2023/04/10 08:30:53;;;;;;;34.80;24.83;;;;;;;;;;5014256;28;20552;-75
2023/04/10 08:33:19;;;;;;;35.03;25.95;;;;;;;;;;5013564;28;20044;-75
2023/04/10 08:35:48;;;;;;;33.10;24.17;;;;;;;;;;5035788;28;20052;-75
2023/04/10 08:38:14;;;;;;;32.75;24.42;;;;;;;;;;5035894;28;20036;-75
2023/04/10 08:40:41;;;;;;;33.58;24.27;;;;;;;;;;5028433;28;21749;-76
2023/04/10 08:43:07;;;;;;;32.33;23.10;;;;;;;;;;5032841;28;20059;-75
2023/04/10 08:45:33;;;;;;;30.40;22.40;;;;;;;;;;5013268;28;20252;-75
2023/04/10 08:48:02;;;;;;;30.58;21.70;;;;;;;;;;5031655;28;20071;-75
2023/04/10 08:50:30;;;;;;;31.33;22.20;;;;;;;;;;5030964;28;20048;-75
2023/04/10 08:52:59;;;;;;;31.08;21.83;;;;;;;;;;5010134;28;20668;-75
2023/04/10 08:55:26;;;;;;;34.05;21.58;;;;;;;;;;5029987;28;20499;-76
2023/04/10 08:57:52;;;;;;;26.42;20.05;;;;;;;;;;5030468;28;20512;-76
2023/04/10 09:00:19;;;;;;;29.05;20.23;;;;;;;;;;5010553;28;20039;-75
2023/04/10 09:02:45;;;;;;;25.88;19.77;;;;;;;;;;5010546;28;21386;-75
2023/04/10 09:05:14;;;;;;;25.58;19.13;;;;;;;;;;5010646;28;20056;-75
2023/04/10 09:07:41;;;;;;;24.05;18.65;;;;;;;;;;5012932;28;20048;-75
2023/04/10 09:10:07;;;;;;;26.95;19.20;;;;;;;;;;5028023;28;20074;-75
2023/04/10 09:12:44;;;;;;;25.17;17.95;;;;;;;;;;5010243;28;20052;-76
2023/04/10 09:15:10;;;;;;;25.95;19.52;;;;;;;;;;5010264;28;20168;-76
2023/04/10 09:17:36;;;;;;;28.90;17.30;;;;;;;;;;4998782;28;20182;-76
2023/04/10 09:20:02;;;;;;;21.45;17.33;;;;;;;;;;5015933;28;20214;-76
2023/04/10 09:22:33;;;;;;;22.48;16.13;;;;;;;;;;5013399;28;20347;-76
2023/04/10 09:25:00;;;;;;;22.77;16.25;;;;;;;;;;5015299;28;20088;-76
2023/04/10 09:27:30;;;;;;;24.00;15.98;;;;;;;;;;5016435;28;20155;-76
2023/04/10 09:29:56;;;;;;;18.33;13.93;;;;;;;;;;5018086;28;20116;-76
2023/04/10 09:32:42;;;;;;;20.15;15.70;;;;;;;;;;5033630;28;20044;-76
2023/04/10 09:35:09;;;;;;;19.08;16.17;;;;;;;;;;5015537;28;20386;-76
2023/04/10 09:37:36;;;;;;;21.15;16.02;;;;;;;;;;5017138;28;20098;-76
2023/04/10 09:40:02;;;;;;;19.88;15.07;;;;;;;;;;5020461;28;20436;-76
2023/04/10 09:42:32;;;;;;;25.30;16.00;;;;;;;;;;5018255;28;20064;-75
2023/04/10 09:44:59;;;;;;;23.23;15.95;;;;;;;;;;5023165;28;21819;-75
2023/04/10 09:47:25;;;;;;;24.27;15.85;;;;;;;;;;5016147;28;20069;-75
2023/04/10 09:49:52;;;;;;;25.75;15.75;;;;;;;;;;5016669;28;20169;-75
2023/04/10 09:52:19;;;;;;;24.85;14.98;;;;;;;;;;5017684;28;20131;-75
2023/04/10 09:54:45;;;;;;;19.55;14.68;;;;;;;;;;5035710;28;20052;-75
2023/04/10 09:57:13;;;;;;;21.50;15.13;;;;;;;;;;5018357;28;20044;-75
2023/04/10 09:59:39;;;;;;;21.23;14.98;;;;;;;;;;5037543;28;20574;-75
2023/04/10 10:02:06;;;;;;;18.92;15.15;;;;;;;;;;5018766;28;20080;-75
2023/04/10 10:04:32;;;;;;;20.10;14.63;;;;;;;;;;5013608;28;20052;-76
2023/04/10 10:06:59;;;;;;;17.95;14.68;;;;;;;;;;5013241;28;21841;-75
2023/04/10 10:09:27;;;;;;;16.83;14.38;;;;;;;;;;5013546;28;20040;-75
2023/04/10 10:11:54;;;;;;;17.58;13.75;;;;;;;;;;4996452;28;20278;-75
2023/04/10 10:14:21;;;;;;;18.45;14.38;;;;;;;;;;5014861;28;20044;-75
2023/04/10 10:16:52;;;;;;;16.30;13.30;;;;;;;;;;5012072;28;20412;-75
2023/04/10 10:19:23;;;;;;;15.77;14.07;;;;;;;;;;5032525;28;20150;-75
2023/04/10 10:21:51;;;;;;;18.52;13.88;;;;;;;;;;5030674;28;20071;-76
2023/04/10 10:24:19;;;;;;;16.10;13.57;;;;;;;;;;5016018;28;20063;-75
2023/04/10 10:26:46;;;;;;;15.65;13.25;;;;;;;;;;5030859;28;20048;-75
2023/04/10 10:29:14;;;;;;;15.52;13.13;;;;;;;;;;4997512;28;20047;-76
2023/04/10 10:31:41;;;;;;;18.58;15.48;;;;;;;;;;5015311;28;20047;-75
2023/04/10 10:34:08;;;;;;;15.82;12.65;;;;;;;;;;5016638;28;20037;-75
2023/04/10 10:36:35;;;;;;;16.73;12.95;;;;;;;;;;5036810;28;20063;-75
2023/04/10 10:39:20;;;;;;;16.50;13.27;;;;;;;;;;5035142;28;20101;-76
2023/04/10 10:41:54;;;;;;;17.75;12.48;;;;;;;;;;5018519;28;20667;-75
2023/04/10 10:44:26;;;;;;;16.23;12.63;;;;;;;;;;5016295;28;20451;-75
2023/04/10 10:47:00;;;;;;;17.15;13.07;;;;;;;;;;5020494;28;20052;-77
2023/04/10 10:49:56;;;;;;;15.88;12.95;;;;;;;;;;5016553;28;20744;-76
2023/04/10 10:52:36;;;;;;;17.35;12.88;;;;;;;;;;4988462;28;20059;-77
2023/04/10 10:55:21;;;;;;;16.17;13.38;;;;;;;;;;5016806;28;20424;-77
2023/04/10 10:57:51;;;;;;;17.77;13.43;;;;;;;;;;5012891;28;20044;-77
2023/04/10 11:00:17;;;;;;;18.27;13.20;;;;;;;;;;5011612;28;20048;-77
2023/04/10 11:02:43;;;;;;;17.38;10.85;;;;;;;;;;5035347;28;20488;-77
2023/04/10 11:05:09;;;;;;;19.05;12.55;;;;;;;;;;5025985;28;20068;-77
2023/04/10 11:07:54;;;;;;;14.93;12.77;;;;;;;;;;5011951;28;20072;-77
2023/04/10 11:10:40;;;;;;;16.33;13.30;;;;;;;;;;5033585;28;20044;-77
2023/04/10 11:13:17;;;;;;;16.83;12.63;;;;;;;;;;5014966;28;20850;-77
2023/04/10 11:15:43;;;;;;;14.25;11.32;;;;;;;;;;5033996;28;20352;-77
2023/04/10 11:18:09;;;;;;;17.63;12.63;;;;;;;;;;5013924;28;20053;-77
2023/04/10 11:20:55;;;;;;;16.08;12.25;;;;;;;;;;5033476;28;20071;-77
2023/04/10 11:23:21;;;;;;;16.50;11.48;;;;;;;;;;5014165;28;20048;-77
2023/04/10 11:25:51;;;;;;;12.23;10.25;;;;;;;;;;4994214;28;20037;-77
2023/04/10 11:28:33;;;;;;;14.32;11.38;;;;;;;;;;5014823;28;20055;-77
2023/04/10 11:31:22;;;;;;;12.80;9.80;;;;;;;;;;5012532;28;20044;-77
2023/04/10 11:33:49;;;;;;;11.40;9.52;;;;;;;;;;5031843;28;20040;-77
2023/04/10 11:36:16;;;;;;;13.30;11.38;;;;;;;;;;5014520;28;20135;-77
2023/04/10 11:38:59;;;;;;;11.60;10.13;;;;;;;;;;5009750;28;20125;-77
2023/04/10 11:41:30;;;;;;;13.20;9.18;;;;;;;;;;5013516;28;20047;-76
2023/04/10 11:43:56;;;;;;;11.02;9.25;;;;;;;;;;5013813;28;20076;-76
2023/04/10 11:46:23;;;;;;;13.13;10.60;;;;;;;;;;5030656;28;20067;-77
2023/04/10 11:48:53;;;;;;;13.15;10.07;;;;;;;;;;5012041;28;21795;-77
2023/04/10 11:51:19;;;;;;;12.63;9.57;;;;;;;;;;5018638;28;20092;-77
2023/04/10 11:53:45;;;;;;;10.30;8.75;;;;;;;;;;5015342;28;20102;-77
2023/04/10 11:56:19;;;;;;;11.20;8.55;;;;;;;;;;5032355;28;20075;-77
2023/04/10 11:58:47;;;;;;;11.77;8.98;;;;;;;;;;5034023;28;20044;-76
2023/04/10 12:01:13;;;;;;;12.68;9.50;;;;;;;;;;5012195;28;20064;-73
2023/04/10 12:03:40;;;;;;;12.13;9.77;;;;;;;;;;5009305;28;20080;-73
2023/04/10 12:06:08;;;;;;;12.27;8.55;;;;;;;;;;5017582;28;20151;-74
2023/04/10 12:08:35;;;;;;;11.70;8.60;;;;;;;;;;5033561;28;20651;-74
2023/04/10 12:11:02;;;;;;;9.82;8.55;;;;;;;;;;5011841;28;20067;-75
2023/04/10 12:13:28;;;;;;;12.68;8.40;;;;;;;;;;5028060;28;20117;-78
2023/04/10 12:15:58;;;;;;;11.70;8.27;;;;;;;;;;5014555;28;20048;-74
2023/04/10 12:18:25;;;;;;;8.80;7.90;;;;;;;;;;5016984;28;20504;-74
2023/04/10 12:20:55;;;;;;;9.65;7.45;;;;;;;;;;5018086;28;20136;-75
2023/04/10 12:23:21;;;;;;;8.95;7.55;;;;;;;;;;5022665;28;20057;-72
2023/04/10 12:25:47;;;;;;;8.80;7.75;;;;;;;;;;5017997;28;20136;-70
2023/04/10 12:28:17;;;;;;;9.80;6.72;;;;;;;;;;5035852;28;20052;-72
2023/04/10 12:30:47;;;;;;;8.18;7.28;;;;;;;;;;4998030;28;20155;-69
2023/04/10 12:33:13;;;;;;;11.20;7.47;;;;;;;;;;5022246;28;20045;-70
2023/04/10 12:35:41;;;;;;;10.13;7.80;;;;;;;;;;5000846;28;20056;-71
2023/04/10 12:38:07;;;;;;;7.45;6.47;;;;;;;;;;5035209;28;20045;-71
2023/04/10 12:40:33;;;;;;;8.30;6.85;;;;;;;;;;5019943;28;20037;-70
2023/04/10 12:42:59;;;;;;;8.38;6.47;;;;;;;;;;5032952;28;20045;-71
2023/04/10 12:45:42;;;;;;;8.45;6.35;;;;;;;;;;5016295;28;20056;-71
2023/04/10 12:48:08;;;;;;;7.47;6.57;;;;;;;;;;5035090;28;20058;-71
2023/04/10 12:50:46;;;;;;;8.68;6.28;;;;;;;;;;5002177;28;20044;-70
2023/04/10 12:53:12;;;;;;;6.70;6.00;;;;;;;;;;5011827;28;20517;-70
2023/04/10 12:55:39;;;;;;;7.50;5.80;;;;;;;;;;5032546;28;20206;-71
2023/04/10 12:58:21;;;;;;;6.97;5.78;;;;;;;;;;5015659;28;20057;-70
2023/04/10 13:00:47;;;;;;;6.47;5.28;;;;;;;;;;5033774;28;20053;-71
2023/04/10 13:03:13;;;;;;;6.55;5.40;;;;;;;;;;5033863;28;20185;-70
2023/04/10 13:05:39;;;;;;;6.63;4.30;;;;;;;;;;5015000;28;20175;-70
2023/04/10 13:08:06;;;;;;;5.53;4.40;;;;;;;;;;5034479;28;20140;-70
2023/04/10 13:10:32;;;;;;;4.68;4.25;;;;;;;;;;5032698;28;20075;-71
2023/04/10 13:12:58;;;;;;;10.63;4.18;;;;;;;;;;5015183;28;20068;-71
2023/04/10 13:15:24;;;;;;;4.60;3.70;;;;;;;;;;4998944;28;20048;-70
2023/04/10 13:17:50;;;;;;;4.90;4.40;;;;;;;;;;5037266;28;20093;-71
2023/04/10 13:20:16;;;;;;;5.10;4.05;;;;;;;;;;5018401;28;20041;-70
2023/04/10 13:22:43;;;;;;;4.57;3.97;;;;;;;;;;4998666;28;20090;-70
2023/04/10 13:25:09;;;;;;;6.20;3.97;;;;;;;;;;5020508;28;20055;-71
2023/04/10 13:27:35;;;;;;;4.75;4.18;;;;;;;;;;5020092;28;20162;-70
2023/04/10 13:30:01;;;;;;;6.38;3.67;;;;;;;;;;5035995;28;20076;-71
2023/04/10 13:32:27;;;;;;;4.38;3.97;;;;;;;;;;5020592;28;20171;-70
2023/04/10 13:34:53;;;;;;;5.18;3.67;;;;;;;;;;5038657;28;20051;-70
2023/04/10 13:37:19;;;;;;;4.90;4.15;;;;;;;;;;5020549;28;20132;-70
2023/04/10 13:39:45;;;;;;;4.50;4.10;;;;;;;;;;5022231;28;20044;-70
2023/04/10 13:42:12;;;;;;;6.35;4.18;;;;;;;;;;5039735;28;20492;-70
2023/04/10 13:44:39;;;;;;;6.55;4.22;;;;;;;;;;5039113;28;20064;-70
2023/04/10 13:47:05;;;;;;;6.65;4.57;;;;;;;;;;5024768;28;20044;-70
2023/04/10 13:49:31;;;;;;;4.55;4.15;;;;;;;;;;5020549;28;20067;-70
2023/04/10 13:51:57;;;;;;;4.78;4.22;;;;;;;;;;5022106;28;20527;-70
2023/04/10 13:54:23;;;;;;;5.30;4.10;;;;;;;;;;5040268;28;20052;-70
2023/04/10 13:56:50;;;;;;;4.72;4.20;;;;;;;;;;5021051;28;20041;-70
2023/04/10 13:59:16;;;;;;;5.45;4.40;;;;;;;;;;5041026;28;20033;-70
2023/04/10 14:01:42;;;;;;;5.70;4.63;;;;;;;;;;5042142;28;20054;-70
2023/04/10 14:04:08;;;;;;;4.97;4.13;;;;;;;;;;5040896;28;20041;-70
2023/04/10 14:06:34;;;;;;;12.88;4.47;;;;;;;;;;5022416;28;20558;-70
2023/04/10 14:09:00;;;;;;;5.88;4.47;;;;;;;;;;5011114;28;20135;-70
2023/04/10 14:11:26;;;;;;;6.07;5.10;;;;;;;;;;5026689;28;20507;-70
2023/04/10 14:13:52;;;;;;;5.28;4.47;;;;;;;;;;5036667;28;22104;-70
2023/04/10 14:16:19;;;;;;;8.88;4.90;;;;;;;;;;5037717;28;20044;-71
2023/04/10 14:18:45;;;;;;;5.35;4.72;;;;;;;;;;5040374;28;20064;-70
2023/04/10 14:21:11;;;;;;;4.80;4.18;;;;;;;;;;5005200;28;20393;-70
2023/04/10 14:23:37;;;;;;;6.55;4.90;;;;;;;;;;5020664;28;20082;-69